Time;durP1;ratioP1;P1;durP2;ratioP2;P2;SDS_P1;SDS_P2;PMS_P1;PMS_P2;Temp;Humidity;BMP_temperature;BMP_pressure;BME280_temperature;BME280_humidity;BME280_pressure;Samples;Min_cycle;Max_cycle;Signal;HPM_P1;HPM_P2
2023/07/03 00:01:30;;;;;;;;;8.75;7.00;;;;;;;;5049075;28;8773;-83
2023/07/03 00:04:00;;;;;;;;;8.50;5.75;;;;;;;;5048950;28;8877;-84
2023/07/03 00:06:29;;;;;;;;;7.00;5.50;;;;;;;;5054870;28;8889;-84
2023/07/03 00:08:56;;;;;;;;;7.75;5.00;;;;;;;;5055748;28;8877;-83
2023/07/03 00:11:23;;;;;;;;;9.00;6.25;;;;;;;;5055967;28;8880;-85
2023/07/03 00:13:50;;;;;;;;;8.00;6.00;;;;;;;;5056147;28;8873;-83
2023/07/03 00:16:18;;;;;;;;;5.00;5.00;;;;;;;;5056744;28;8862;-83
2023/07/03 00:18:48;;;;;;;;;5.00;5.00;;;;;;;;5059878;28;8849;-83
2023/07/03 00:21:17;;;;;;;;;9.00;7.33;;;;;;;;5062730;28;8966;-83
2023/07/03 00:23:44;;;;;;;;;6.50;6.00;;;;;;;;5058327;28;8871;-86
2023/07/03 00:26:11;;;;;;;;;8.25;7.00;;;;;;;;5058001;28;8857;-85
2023/07/03 00:28:38;;;;;;;;;9.00;5.75;;;;;;;;5056264;28;9658;-85
2023/07/03 00:31:06;;;;;;;;;8.25;6.00;;;;;;;;5056719;28;8836;-85
2023/07/03 00:33:33;;;;;;;;;5.75;5.50;;;;;;;;5057483;28;8869;-86
2023/07/03 00:36:00;;;;;;;;;8.75;8.00;;;;;;;;5057516;28;8884;-83
2023/07/03 00:38:29;;;;;;;;;5.75;5.75;;;;;;;;5058527;28;8853;-87
2023/07/03 00:40:57;;;;;;;;;8.50;6.50;;;;;;;;5059086;28;8891;-87
2023/07/03 00:43:26;;;;;;;;;8.50;8.50;;;;;;;;5060148;28;8865;-85
2023/07/03 00:45:53;;;;;;;;;6.00;6.00;;;;;;;;5070082;28;8984;-87
2023/07/03 00:48:21;;;;;;;;;8.00;6.50;;;;;;;;5057522;28;9659;-83
2023/07/03 00:50:48;;;;;;;;;7.25;5.50;;;;;;;;5065563;28;8858;-83
2023/07/03 00:53:15;;;;;;;;;8.50;6.25;;;;;;;;5060800;28;9006;-86
2023/07/03 00:55:45;;;;;;;;;8.25;6.00;;;;;;;;5063043;28;8860;-84
2023/07/03 00:58:12;;;;;;;;;7.25;4.75;;;;;;;;5059220;28;8850;-86
2023/07/03 01:00:46;;;;;;;;;8.50;6.00;;;;;;;;5057714;28;8770;-82
2023/07/03 01:03:32;;;;;;;;;6.50;6.50;;;;;;;;5067585;28;8869;-82
2023/07/03 01:06:00;;;;;;;;;7.25;5.75;;;;;;;;5064381;28;9616;-83
2023/07/03 01:08:28;;;;;;;;;7.00;7.00;;;;;;;;5067470;28;8964;-82
2023/07/03 01:10:57;;;;;;;;;4.00;4.00;;;;;;;;5054844;28;9754;-82
2023/07/03 01:13:29;;;;;;;;;5.50;5.50;;;;;;;;5054814;28;8861;-83
2023/07/03 01:15:57;;;;;;;;;5.00;5.00;;;;;;;;5055181;28;8875;-86
2023/07/03 01:18:25;;;;;;;;;5.50;4.00;;;;;;;;5051998;28;8846;-86
2023/07/03 01:21:02;;;;;;;;;5.25;5.25;;;;;;;;5053001;28;8891;-85
2023/07/03 01:23:32;;;;;;;;;5.00;5.00;;;;;;;;5053104;28;8849;-85
2023/07/03 01:26:02;;;;;;;;;5.25;4.00;;;;;;;;5051766;28;8873;-85
2023/07/03 01:28:29;;;;;;;;;7.50;5.25;;;;;;;;5052332;28;9674;-85
2023/07/03 01:30:57;;;;;;;;;8.00;6.50;;;;;;;;5051753;28;8820;-84
2023/07/03 01:33:30;;;;;;;;;6.50;6.50;;;;;;;;5052686;28;8862;-85
2023/07/03 01:35:59;;;;;;;;;7.75;6.50;;;;;;;;5057679;28;8857;-86
2023/07/03 01:38:27;;;;;;;;;8.75;7.00;;;;;;;;5058383;28;8984;-86
2023/07/03 01:40:55;;;;;;;;;6.00;5.50;;;;;;;;5056128;28;8842;-86
2023/07/03 01:43:24;;;;;;;;;7.25;6.00;;;;;;;;5054813;28;8920;-85
2023/07/03 01:45:51;;;;;;;;;4.75;4.75;;;;;;;;5064592;28;8880;-85
2023/07/03 01:48:19;;;;;;;;;7.25;6.25;;;;;;;;5052313;28;8853;-84
2023/07/03 01:50:47;;;;;;;;;5.00;5.00;;;;;;;;5051919;28;8970;-86
2023/07/03 01:53:18;;;;;;;;;6.00;6.00;;;;;;;;5052352;28;8853;-85
2023/07/03 01:55:49;;;;;;;;;6.00;4.25;;;;;;;;5051102;28;8907;-85
2023/07/03 01:58:25;;;;;;;;;3.00;3.00;;;;;;;;5051840;28;8861;-84
2023/07/03 02:00:55;;;;;;;;;6.00;4.00;;;;;;;;5051882;28;8805;-82
2023/07/03 02:03:26;;;;;;;;;7.00;7.00;;;;;;;;5052289;28;8976;-86
2023/07/03 02:05:55;;;;;;;;;4.25;4.25;;;;;;;;5052394;28;9016;-84
2023/07/03 02:08:23;;;;;;;;;4.75;3.75;;;;;;;;5050821;28;8876;-84
2023/07/03 02:10:50;;;;;;;;;1.00;1.00;;;;;;;;5051358;28;9002;-83
2023/07/03 02:13:18;;;;;;;;;5.25;5.25;;;;;;;;5064847;28;8841;-85
2023/07/03 02:15:46;;;;;;;;;6.00;5.25;;;;;;;;5056279;28;8938;-85
2023/07/03 02:18:17;;;;;;;;;6.00;5.00;;;;;;;;5059326;28;8975;-83
2023/07/03 02:20:45;;;;;;;;;2.50;2.50;;;;;;;;5060113;28;8897;-85
2023/07/03 02:23:12;;;;;;;;;3.00;3.00;;;;;;;;5057578;28;8869;-85
2023/07/03 02:25:39;;;;;;;;;4.00;4.00;;;;;;;;5057146;28;8861;-84
2023/07/03 02:28:08;;;;;;;;;6.00;4.75;;;;;;;;5065742;28;8865;-84
2023/07/03 02:30:35;;;;;;;;;5.00;3.25;;;;;;;;5052292;28;8919;-84
2023/07/03 02:33:04;;;;;;;;;3.25;3.25;;;;;;;;5062275;28;8911;-84
2023/07/03 02:35:31;;;;;;;;;5.00;5.00;;;;;;;;5059842;28;8985;-84
2023/07/03 02:37:58;;;;;;;;;3.00;3.00;;;;;;;;5061224;28;9004;-82
2023/07/03 02:40:26;;;;;;;;;5.00;3.00;;;;;;;;5065383;28;8846;-83
2023/07/03 02:42:53;;;;;;;;;4.00;4.00;;;;;;;;5061236;28;8896;-83
2023/07/03 02:45:20;;;;;;;;;5.25;5.25;;;;;;;;5064263;28;8877;-83
2023/07/03 02:47:47;;;;;;;;;7.25;4.75;;;;;;;;5043024;28;8881;-83
2023/07/03 02:50:16;;;;;;;;;8.25;4.00;;;;;;;;5050556;28;9004;-83
2023/07/03 02:52:43;;;;;;;;;5.25;5.00;;;;;;;;5057952;28;8854;-80
2023/07/03 02:55:11;;;;;;;;;6.00;5.50;;;;;;;;5060155;28;8849;-83
2023/07/03 02:57:38;;;;;;;;;5.00;5.00;;;;;;;;5050802;28;8889;-81
2023/07/03 03:00:07;;;;;;;;;4.50;4.50;;;;;;;;5050192;28;8998;-82
2023/07/03 03:02:34;;;;;;;;;8.25;6.75;;;;;;;;5052449;28;8862;-83
2023/07/03 03:05:01;;;;;;;;;4.50;4.50;;;;;;;;5050676;28;8990;-84
2023/07/03 03:07:30;;;;;;;;;7.00;6.00;;;;;;;;5050879;28;8853;-83
2023/07/03 03:10:00;;;;;;;;;6.25;5.50;;;;;;;;5050512;28;9001;-85
2023/07/03 03:12:27;;;;;;;;;5.25;5.25;;;;;;;;5050489;28;8879;-87
2023/07/03 03:14:55;;;;;;;;;5.00;5.00;;;;;;;;5050353;28;8872;-86
2023/07/03 03:17:22;;;;;;;;;6.50;6.50;;;;;;;;5049975;28;8858;-86
2023/07/03 03:19:49;;;;;;;;;7.50;6.50;;;;;;;;5050753;28;8864;-86
2023/07/03 03:22:17;;;;;;;;;5.00;5.00;;;;;;;;5049211;28;8873;-85
2023/07/03 03:24:46;;;;;;;;;6.75;6.00;;;;;;;;5049414;28;8865;-86
2023/07/03 03:27:13;;;;;;;;;8.25;5.00;;;;;;;;5052107;28;9048;-83
2023/07/03 03:29:43;;;;;;;;;7.25;6.00;;;;;;;;5063804;28;8865;-85
2023/07/03 03:32:10;;;;;;;;;9.50;7.25;;;;;;;;5058157;28;8828;-85
2023/07/03 03:34:37;;;;;;;;;8.75;7.50;;;;;;;;5055331;28;8938;-85
2023/07/03 03:37:06;;;;;;;;;6.25;6.25;;;;;;;;5056116;28;8858;-86
2023/07/03 03:39:33;;;;;;;;;10.75;7.25;;;;;;;;5050670;28;8862;-85
2023/07/03 03:42:02;;;;;;;;;8.75;7.25;;;;;;;;5051328;28;8869;-85
2023/07/03 03:44:29;;;;;;;;;8.50;7.00;;;;;;;;5050871;28;8854;-87
2023/07/03 03:46:56;;;;;;;;;5.00;5.00;;;;;;;;5049106;28;8872;-87
2023/07/03 03:49:24;;;;;;;;;6.75;6.75;;;;;;;;5049710;28;8861;-88
2023/07/03 03:51:51;;;;;;;;;6.75;6.00;;;;;;;;5062176;28;8988;-88
2023/07/03 03:54:19;;;;;;;;;6.25;6.25;;;;;;;;5049409;28;8887;-83
2023/07/03 03:56:46;;;;;;;;;9.75;7.25;;;;;;;;5049258;28;8869;-87
2023/07/03 03:59:15;;;;;;;;;9.00;6.00;;;;;;;;5050545;28;8854;-87
2023/07/03 04:01:43;;;;;;;;;5.00;5.00;;;;;;;;5056720;28;8910;-85
2023/07/03 04:04:10;;;;;;;;;5.25;5.25;;;;;;;;5056218;28;8880;-84
2023/07/03 04:06:37;;;;;;;;;7.00;7.00;;;;;;;;5048070;28;8865;-83
2023/07/03 04:09:05;;;;;;;;;7.25;7.25;;;;;;;;5070089;28;8931;-82
2023/07/03 04:11:33;;;;;;;;;9.00;6.00;;;;;;;;5060323;28;8887;-85
2023/07/03 04:14:00;;;;;;;;;8.00;8.00;;;;;;;;5054265;28;8981;-85
2023/07/03 04:16:32;;;;;;;;;11.50;8.00;;;;;;;;5052633;28;8850;-86
2023/07/03 04:18:59;;;;;;;;;7.75;7.00;;;;;;;;5060223;28;8829;-85
2023/07/03 04:21:26;;;;;;;;;6.50;6.50;;;;;;;;5049375;28;8881;-85
2023/07/03 04:23:54;;;;;;;;;12.00;10.00;;;;;;;;5047890;28;8917;-85
2023/07/03 04:26:22;;;;;;;;;8.25;8.25;;;;;;;;5048096;28;8874;-86
2023/07/03 04:28:49;;;;;;;;;10.50;8.75;;;;;;;;5049208;28;8983;-86
2023/07/03 04:31:17;;;;;;;;;11.50;8.75;;;;;;;;5049248;28;8822;-80
2023/07/03 04:33:46;;;;;;;;;7.75;7.75;;;;;;;;5052584;28;8904;-82
2023/07/03 04:36:13;;;;;;;;;8.25;7.25;;;;;;;;5057952;28;8878;-81
2023/07/03 04:38:41;;;;;;;;;9.50;9.50;;;;;;;;5054571;28;8882;-84
2023/07/03 04:41:09;;;;;;;;;14.25;12.00;;;;;;;;5058572;28;8946;-83
2023/07/03 04:43:44;;;;;;;;;11.50;8.75;;;;;;;;5063101;28;8885;-89
2023/07/03 04:46:13;;;;;;;;;7.50;7.50;;;;;;;;5049704;28;9022;-84
2023/07/03 04:48:40;;;;;;;;;9.00;7.00;;;;;;;;5052897;28;8911;-83
2023/07/03 04:51:10;;;;;;;;;9.00;9.00;;;;;;;;5053771;28;8873;-82
2023/07/03 04:53:40;;;;;;;;;8.75;8.75;;;;;;;;5056110;28;8861;-87
2023/07/03 04:56:08;;;;;;;;;9.00;7.25;;;;;;;;5052503;28;8853;-81
2023/07/03 04:58:35;;;;;;;;;8.00;8.00;;;;;;;;5053535;28;8987;-87
2023/07/03 05:01:04;;;;;;;;;9.50;7.00;;;;;;;;5055474;28;8804;-89
2023/07/03 05:03:32;;;;;;;;;9.00;7.00;;;;;;;;5054184;28;8848;-87
2023/07/03 05:05:59;;;;;;;;;9.50;9.50;;;;;;;;5051959;28;8849;-89
2023/07/03 05:08:28;;;;;;;;;8.75;7.75;;;;;;;;5061057;28;8839;-89
2023/07/03 05:10:55;;;;;;;;;13.00;11.50;;;;;;;;5057555;28;8952;-85
2023/07/03 05:13:23;;;;;;;;;10.50;10.50;;;;;;;;5063466;28;8881;-89
2023/07/03 05:15:50;;;;;;;;;15.25;11.75;;;;;;;;5052059;28;8834;-85
2023/07/03 05:18:17;;;;;;;;;12.25;10.75;;;;;;;;5061801;28;8897;-87
2023/07/03 05:20:45;;;;;;;;;11.00;7.75;;;;;;;;5055181;28;8988;-81
2023/07/03 05:23:15;;;;;;;;;13.25;11.00;;;;;;;;5053654;28;8861;-90
2023/07/03 05:25:44;;;;;;;;;6.50;6.50;;;;;;;;5071215;28;8847;-86
2023/07/03 05:28:12;;;;;;;;;6.50;5.50;;;;;;;;5060724;28;9684;-88
2023/07/03 05:30:39;;;;;;;;;10.50;10.50;;;;;;;;5059314;28;8793;-84
2023/07/03 05:33:06;;;;;;;;;9.25;9.25;;;;;;;;5070562;28;8882;-88
2023/07/03 05:35:33;;;;;;;;;10.25;7.75;;;;;;;;5059819;28;9651;-91
2023/07/03 05:38:01;;;;;;;;;8.50;8.25;;;;;;;;5058520;28;9004;-90
2023/07/03 05:40:28;;;;;;;;;10.00;8.75;;;;;;;;5060068;28;8861;-89
2023/07/03 05:42:57;;;;;;;;;8.00;8.00;;;;;;;;5057160;28;8865;-89
2023/07/03 05:45:24;;;;;;;;;9.75;9.75;;;;;;;;5054895;28;8841;-91
2023/07/03 05:47:51;;;;;;;;;5.50;5.25;;;;;;;;5059535;28;8882;-89
2023/07/03 05:50:19;;;;;;;;;8.50;7.00;;;;;;;;5064917;28;8857;-85
2023/07/03 05:52:46;;;;;;;;;9.00;8.25;;;;;;;;5052301;28;8896;-90
2023/07/03 05:55:16;;;;;;;;;12.00;8.00;;;;;;;;5059751;28;8923;-87
2023/07/03 05:57:44;;;;;;;;;6.25;6.25;;;;;;;;5051983;28;8865;-87
2023/07/03 06:00:17;;;;;;;;;11.00;9.00;;;;;;;;5050986;28;8984;-93
2023/07/03 06:02:45;;;;;;;;;10.25;9.50;;;;;;;;5050026;28;8849;-82
2023/07/03 06:05:14;;;;;;;;;12.00;8.25;;;;;;;;5043331;28;8932;-91
2023/07/03 06:07:41;;;;;;;;;10.50;8.75;;;;;;;;5065920;28;8861;-88
2023/07/03 06:10:10;;;;;;;;;10.50;10.25;;;;;;;;5064729;28;8851;-91
2023/07/03 06:12:38;;;;;;;;;9.00;7.00;;;;;;;;5058992;28;8996;-90
2023/07/03 06:15:06;;;;;;;;;9.25;9.25;;;;;;;;5057543;28;8992;-90
2023/07/03 06:17:36;;;;;;;;;8.00;8.00;;;;;;;;5055868;28;8849;-91
2023/07/03 06:20:04;;;;;;;;;11.75;8.00;;;;;;;;5053398;28;8931;-89
2023/07/03 06:22:31;;;;;;;;;9.25;8.25;;;;;;;;5052125;28;8879;-89
2023/07/03 06:24:59;;;;;;;;;13.25;11.25;;;;;;;;5050501;28;8867;-79
2023/07/03 06:27:26;;;;;;;;;11.50;9.50;;;;;;;;5057715;28;8989;-85
2023/07/03 06:29:53;;;;;;;;;9.00;9.00;;;;;;;;5057306;28;8862;-79
2023/07/03 06:32:21;;;;;;;;;12.00;10.75;;;;;;;;5050510;28;8830;-78
2023/07/03 06:34:50;;;;;;;;;8.00;8.00;;;;;;;;5053876;28;8901;-92
2023/07/03 06:37:17;;;;;;;;;11.75;9.00;;;;;;;;5051572;28;8849;-88
2023/07/03 06:39:44;;;;;;;;;7.25;7.25;;;;;;;;5054996;28;8887;-81
2023/07/03 06:42:11;;;;;;;;;11.25;9.50;;;;;;;;5055364;28;8972;-91
2023/07/03 06:44:40;;;;;;;;;16.25;14.50;;;;;;;;5064388;28;8847;-80
2023/07/03 06:47:08;;;;;;;;;11.75;10.25;;;;;;;;5049976;28;8873;-80
2023/07/03 06:49:35;;;;;;;;;7.00;7.00;;;;;;;;5050189;28;8915;-87
2023/07/03 06:52:04;;;;;;;;;8.00;6.75;;;;;;;;5049439;28;8939;-76
2023/07/03 06:54:31;;;;;;;;;15.25;10.75;;;;;;;;5050025;28;8849;-89
2023/07/03 06:56:59;;;;;;;;;12.75;10.75;;;;;;;;5048863;28;8861;-80
2023/07/03 06:59:27;;;;;;;;;9.75;9.75;;;;;;;;5051711;28;8880;-81
2023/07/03 07:01:54;;;;;;;;;9.00;8.50;;;;;;;;5049751;28;8802;-84
2023/07/03 07:04:21;;;;;;;;;7.00;7.00;;;;;;;;5050553;28;8872;-82
2023/07/03 07:06:49;;;;;;;;;11.00;9.00;;;;;;;;5058473;28;8846;-87
2023/07/03 07:09:21;;;;;;;;;12.50;11.00;;;;;;;;5054228;28;8837;-92
2023/07/03 07:11:48;;;;;;;;;9.75;7.75;;;;;;;;5051227;28;8861;-85
2023/07/03 07:14:17;;;;;;;;;8.00;6.25;;;;;;;;5050620;28;8841;-86
2023/07/03 07:16:47;;;;;;;;;15.25;10.00;;;;;;;;5061434;28;8871;-80
2023/07/03 07:19:14;;;;;;;;;9.75;9.75;;;;;;;;5053122;28;8868;-88
2023/07/03 07:21:42;;;;;;;;;7.50;7.50;;;;;;;;5062295;28;9447;-82
2023/07/03 07:24:15;;;;;;;;;12.75;8.75;;;;;;;;5064650;28;8981;-84
2023/07/03 07:26:44;;;;;;;;;9.00;7.00;;;;;;;;5050744;28;8958;-87
2023/07/03 07:29:11;;;;;;;;;10.50;10.50;;;;;;;;5059235;28;8853;-88
2023/07/03 07:31:39;;;;;;;;;9.00;9.00;;;;;;;;5048439;28;8980;-83
2023/07/03 07:34:08;;;;;;;;;7.00;7.00;;;;;;;;5061513;28;8922;-83
2023/07/03 07:36:36;;;;;;;;;9.25;9.25;;;;;;;;5059171;28;8867;-88
2023/07/03 07:39:04;;;;;;;;;4.50;4.50;;;;;;;;5062499;28;9590;-86
2023/07/03 07:41:32;;;;;;;;;5.20;5.20;;;;;;;;5066482;28;8871;-83
2023/07/03 07:44:01;;;;;;;;;8.75;8.75;;;;;;;;5062915;28;9716;-82
2023/07/03 07:46:30;;;;;;;;;9.25;8.25;;;;;;;;5063388;28;8883;-86
2023/07/03 07:48:57;;;;;;;;;7.40;7.40;;;;;;;;5064534;28;8854;-86
2023/07/03 07:51:25;;;;;;;;;7.20;7.00;;;;;;;;5053020;28;8873;-83
2023/07/03 07:53:56;;;;;;;;;9.00;5.75;;;;;;;;5062336;28;8969;-83
2023/07/03 07:56:23;;;;;;;;;8.00;7.75;;;;;;;;5053662;28;8891;-79
2023/07/03 07:58:51;;;;;;;;;10.80;7.60;;;;;;;;5054808;28;8891;-88
2023/07/03 08:01:20;;;;;;;;;8.40;8.40;;;;;;;;5054432;28;8794;-81
2023/07/03 08:03:48;;;;;;;;;9.40;7.40;;;;;;;;5051665;28;8884;-82
2023/07/03 08:06:18;;;;;;;;;9.40;8.00;;;;;;;;5061636;28;9784;-83
2023/07/03 08:08:46;;;;;;;;;8.00;6.40;;;;;;;;5050625;28;9644;-81
2023/07/03 08:11:14;;;;;;;;;9.20;7.80;;;;;;;;5050432;28;8875;-83
2023/07/03 08:13:42;;;;;;;;;8.40;5.40;;;;;;;;5050970;28;8871;-80
2023/07/03 08:16:10;;;;;;;;;8.80;8.80;;;;;;;;5049156;28;8903;-84
2023/07/03 08:18:39;;;;;;;;;6.20;6.20;;;;;;;;5048610;28;8996;-85
2023/07/03 08:21:07;;;;;;;;;6.20;5.80;;;;;;;;5036264;28;8964;-88
2023/07/03 08:23:34;;;;;;;;;11.00;9.60;;;;;;;;5049145;28;8858;-88
2023/07/03 08:26:02;;;;;;;;;6.00;4.60;;;;;;;;5049503;28;8883;-84
2023/07/03 08:28:29;;;;;;;;;8.40;8.40;;;;;;;;5053487;28;8869;-92
2023/07/03 08:30:57;;;;;;;;;7.60;6.60;;;;;;;;5060389;28;8798;-86
2023/07/03 08:33:25;;;;;;;;;6.60;6.00;;;;;;;;5058253;28;8938;-89
2023/07/03 08:35:54;;;;;;;;;4.60;4.60;;;;;;;;5054495;28;8877;-90
2023/07/03 08:38:21;;;;;;;;;6.00;5.40;;;;;;;;5053706;28;8838;-89
2023/07/03 08:40:57;;;;;;;;;6.20;6.20;;;;;;;;5054599;28;8861;-89
2023/07/03 08:43:24;;;;;;;;;8.00;7.20;;;;;;;;5054343;28;8866;-90
2023/07/03 08:45:52;;;;;;;;;10.00;8.00;;;;;;;;5054307;28;8987;-87
2023/07/03 08:48:22;;;;;;;;;7.00;7.00;;;;;;;;5069308;28;8865;-89
2023/07/03 08:50:53;;;;;;;;;8.00;7.00;;;;;;;;5058217;28;8872;-88
2023/07/03 08:53:26;;;;;;;;;6.40;6.40;;;;;;;;5055329;28;8957;-90
2023/07/03 08:55:58;;;;;;;;;5.00;5.00;;;;;;;;5056421;28;8932;-91
2023/07/03 08:58:26;;;;;;;;;7.80;7.40;;;;;;;;5055462;28;8894;-88
2023/07/03 09:01:04;;;;;;;;;7.80;6.20;;;;;;;;5052541;28;8791;-90
2023/07/03 09:03:38;;;;;;;;;7.40;7.40;;;;;;;;5066497;28;8845;-87
2023/07/03 09:06:14;;;;;;;;;6.20;6.00;;;;;;;;5066989;28;8885;-91
2023/07/03 09:08:49;;;;;;;;;5.80;5.00;;;;;;;;5051796;28;8846;-90
2023/07/03 09:11:17;;;;;;;;;5.00;5.00;;;;;;;;5052641;28;8850;-83
2023/07/03 09:13:48;;;;;;;;;7.60;5.80;;;;;;;;5053752;28;8952;-84
2023/07/03 09:16:19;;;;;;;;;8.00;6.00;;;;;;;;5051199;28;8880;-89
2023/07/03 09:18:50;;;;;;;;;5.40;5.40;;;;;;;;5051146;28;8865;-81
2023/07/03 09:21:19;;;;;;;;;1.60;1.60;;;;;;;;5039899;28;8873;-88
2023/07/03 09:23:52;;;;;;;;;6.00;6.00;;;;;;;;5050729;28;8829;-84
2023/07/03 09:26:24;;;;;;;;;7.20;7.20;;;;;;;;5051219;28;8908;-81
2023/07/03 09:28:58;;;;;;;;;6.20;6.20;;;;;;;;5049918;28;9815;-87
2023/07/03 09:31:26;;;;;;;;;5.80;5.80;;;;;;;;5050808;28;8875;-82
2023/07/03 09:33:53;;;;;;;;;8.40;8.40;;;;;;;;5051672;28;8967;-83
2023/07/03 09:36:26;;;;;;;;;8.20;5.80;;;;;;;;5050596;28;8967;-84
2023/07/03 09:38:54;;;;;;;;;8.00;7.00;;;;;;;;5053433;28;8843;-81
2023/07/03 09:41:31;;;;;;;;;7.20;7.00;;;;;;;;5058200;28;8972;-79
2023/07/03 09:43:58;;;;;;;;;10.00;8.40;;;;;;;;5049733;28;9439;-82
2023/07/03 09:46:26;;;;;;;;;7.00;7.00;;;;;;;;5051322;28;8992;-87
2023/07/03 09:48:54;;;;;;;;;5.40;5.40;;;;;;;;5047573;28;8908;-81
2023/07/03 09:51:28;;;;;;;;;9.40;8.20;;;;;;;;5063221;28;8866;-87
2023/07/03 09:53:58;;;;;;;;;7.00;7.00;;;;;;;;5053639;28;8973;-87
2023/07/03 09:56:29;;;;;;;;;7.80;7.80;;;;;;;;5056576;28;8923;-83
2023/07/03 09:59:03;;;;;;;;;6.60;6.60;;;;;;;;5052006;28;8976;-84
2023/07/03 10:01:32;;;;;;;;;8.60;6.60;;;;;;;;5055846;28;8835;-81
2023/07/03 10:04:07;;;;;;;;;7.40;7.20;;;;;;;;5057922;28;9028;-85
2023/07/03 10:06:36;;;;;;;;;6.20;6.20;;;;;;;;5039593;28;8841;-82
2023/07/03 10:09:06;;;;;;;;;8.20;5.80;;;;;;;;5063719;28;8952;-85
2023/07/03 10:11:41;;;;;;;;;7.20;7.20;;;;;;;;5051602;28;8873;-89
2023/07/03 10:14:12;;;;;;;;;5.00;4.40;;;;;;;;5053842;28;9031;-90
2023/07/03 10:16:40;;;;;;;;;6.40;5.00;;;;;;;;5052911;28;8872;-90
2023/07/03 10:19:09;;;;;;;;;5.20;4.00;;;;;;;;5051271;28;8853;-89
2023/07/03 10:21:38;;;;;;;;;2.80;2.80;;;;;;;;5063323;28;8975;-86
2023/07/03 10:24:07;;;;;;;;;3.40;2.20;;;;;;;;5055200;28;8857;-90
2023/07/03 10:26:40;;;;;;;;;4.20;4.20;;;;;;;;5053890;28;8912;-87
2023/07/03 10:29:11;;;;;;;;;4.80;3.80;;;;;;;;5054602;28;8980;-86
2023/07/03 10:31:43;;;;;;;;;6.40;4.80;;;;;;;;5054818;28;8829;-89
2023/07/03 10:34:17;;;;;;;;;2.40;2.40;;;;;;;;5044097;28;8885;-77
2023/07/03 10:36:49;;;;;;;;;3.80;3.80;;;;;;;;5062563;28;8866;-79
2023/07/03 10:39:21;;;;;;;;;6.80;4.60;;;;;;;;5059025;28;8866;-84
2023/07/03 10:41:51;;;;;;;;;4.80;4.80;;;;;;;;5061848;28;8846;-77
2023/07/03 10:44:22;;;;;;;;;6.80;5.80;;;;;;;;5066947;28;8855;-84
2023/07/03 10:46:54;;;;;;;;;3.00;3.00;;;;;;;;5050582;28;8880;-83
2023/07/03 10:49:26;;;;;;;;;2.40;2.40;;;;;;;;5059780;28;8897;-83
2023/07/03 10:52:01;;;;;;;;;4.60;3.00;;;;;;;;5048537;28;8983;-82
2023/07/03 10:54:33;;;;;;;;;3.80;3.80;;;;;;;;5049609;28;8857;-82
2023/07/03 10:57:03;;;;;;;;;3.80;3.80;;;;;;;;5049026;28;8983;-83
2023/07/03 10:59:33;;;;;;;;;4.60;4.40;;;;;;;;5049036;28;8893;-84
2023/07/03 11:02:16;;;;;;;;;8.00;7.80;;;;;;;;5049500;28;8887;-85
2023/07/03 11:04:51;;;;;;;;;9.80;8.00;;;;;;;;5050254;28;8854;-82
2023/07/03 11:07:24;;;;;;;;;7.40;7.40;;;;;;;;5049176;28;8846;-85
2023/07/03 11:09:58;;;;;;;;;6.20;6.00;;;;;;;;5038337;28;8873;-82
2023/07/03 11:12:32;;;;;;;;;6.80;6.80;;;;;;;;5050023;28;8854;-85
2023/07/03 11:15:11;;;;;;;;;9.20;6.60;;;;;;;;5048977;28;8873;-81
2023/07/03 11:17:43;;;;;;;;;8.40;6.60;;;;;;;;5049201;28;8846;-81
2023/07/03 11:20:17;;;;;;;;;8.60;7.80;;;;;;;;5050304;28;8995;-84
2023/07/03 11:22:54;;;;;;;;;6.20;6.20;;;;;;;;5049985;28;8968;-84
2023/07/03 11:25:28;;;;;;;;;5.80;5.80;;;;;;;;5050136;28;8959;-82
2023/07/03 11:28:03;;;;;;;;;7.20;7.20;;;;;;;;5050410;28;8861;-84
2023/07/03 11:30:31;;;;;;;;;4.80;4.80;;;;;;;;5050611;28;8729;-83
2023/07/03 11:33:05;;;;;;;;;6.20;5.80;;;;;;;;5055252;28;8847;-84
2023/07/03 11:35:32;;;;;;;;;10.20;7.20;;;;;;;;5057920;28;9465;-84
2023/07/03 11:38:05;;;;;;;;;5.80;5.00;;;;;;;;5056273;28;8871;-83
2023/07/03 11:40:36;;;;;;;;;6.00;4.20;;;;;;;;5057763;28;8863;-83
2023/07/03 11:43:22;;;;;;;;;6.80;5.00;;;;;;;;5066347;28;8870;-81
2023/07/03 11:46:07;;;;;;;;;4.80;4.80;;;;;;;;5056738;28;8879;-83
2023/07/03 11:48:42;;;;;;;;;5.80;4.60;;;;;;;;5045430;28;8849;-81
2023/07/03 11:51:12;;;;;;;;;5.00;5.00;;;;;;;;5048871;28;8938;-83
2023/07/03 11:53:44;;;;;;;;;5.80;5.80;;;;;;;;5056381;28;8846;-82
2023/07/03 11:56:14;;;;;;;;;5.80;5.80;;;;;;;;5056477;28;8950;-84
2023/07/03 11:58:42;;;;;;;;;5.40;3.80;;;;;;;;5060179;28;8961;-83
2023/07/03 12:01:27;;;;;;;;;3.80;3.20;;;;;;;;5053069;28;8802;-83
2023/07/03 12:03:57;;;;;;;;;3.40;3.40;;;;;;;;5054989;28;8850;-84
2023/07/03 12:06:47;;;;;;;;;5.60;4.20;;;;;;;;5064198;28;8917;-85
2023/07/03 12:09:31;;;;;;;;;2.80;2.80;;;;;;;;5063302;28;8858;-84
2023/07/03 12:12:20;;;;;;;;;5.00;5.00;;;;;;;;5069173;28;8923;-84
2023/07/03 12:14:56;;;;;;;;;4.60;3.40;;;;;;;;5052209;28;8853;-84
2023/07/03 12:17:26;;;;;;;;;6.00;5.00;;;;;;;;5051274;28;8943;-84
2023/07/03 12:20:05;;;;;;;;;6.40;6.40;;;;;;;;5066718;28;8860;-84
2023/07/03 12:22:33;;;;;;;;;4.60;3.20;;;;;;;;5062504;28;8854;-83
2023/07/03 12:25:03;;;;;;;;;6.60;4.00;;;;;;;;5047711;28;8870;-84
2023/07/03 12:27:31;;;;;;;;;4.80;4.80;;;;;;;;5048175;28;8868;-83
2023/07/03 12:29:58;;;;;;;;;9.00;7.40;;;;;;;;5052876;28;8859;-81
2023/07/03 12:32:27;;;;;;;;;8.00;5.20;;;;;;;;5055510;28;8928;-86
2023/07/03 12:34:55;;;;;;;;;7.00;5.80;;;;;;;;5053560;28;8847;-82
2023/07/03 12:37:25;;;;;;;;;5.20;5.20;;;;;;;;5055230;28;8869;-83
2023/07/03 12:39:53;;;;;;;;;4.40;4.40;;;;;;;;5046387;28;8857;-81
2023/07/03 12:42:24;;;;;;;;;2.80;2.80;;;;;;;;5047690;28;8845;-80
2023/07/03 12:44:52;;;;;;;;;5.20;5.20;;;;;;;;5047278;28;8842;-82
2023/07/03 12:47:21;;;;;;;;;3.60;3.60;;;;;;;;5047528;28;8899;-82
2023/07/03 12:49:58;;;;;;;;;6.80;5.00;;;;;;;;5047284;28;8988;-81
2023/07/03 12:52:26;;;;;;;;;5.00;5.00;;;;;;;;5048085;28;8861;-81
2023/07/03 12:54:54;;;;;;;;;5.40;5.40;;;;;;;;5050317;28;8870;-83
2023/07/03 12:57:24;;;;;;;;;7.20;5.60;;;;;;;;5049849;28;9613;-85
2023/07/03 12:59:53;;;;;;;;;6.80;5.60;;;;;;;;5048977;28;8854;-79
2023/07/03 13:02:22;;;;;;;;;8.20;7.40;;;;;;;;5048401;28;8810;-82
2023/07/03 13:04:56;;;;;;;;;4.60;4.60;;;;;;;;5047869;28;8872;-83
2023/07/03 13:07:24;;;;;;;;;4.60;4.60;;;;;;;;5047882;28;8899;-84
2023/07/03 13:09:53;;;;;;;;;0.60;0.60;;;;;;;;5049754;28;8915;-80
2023/07/03 13:12:23;;;;;;;;;3.00;3.00;;;;;;;;5064313;28;8846;-82
2023/07/03 13:15:07;;;;;;;;;3.80;3.80;;;;;;;;5062743;28;8842;-82
2023/07/03 13:17:39;;;;;;;;;3.20;3.20;;;;;;;;5051450;28;8842;-81
2023/07/03 13:20:18;;;;;;;;;3.20;3.20;;;;;;;;5051167;28;9019;-80
2023/07/03 13:22:47;;;;;;;;;8.20;6.20;;;;;;;;5038573;28;8845;-81
2023/07/03 13:25:26;;;;;;;;;4.00;4.00;;;;;;;;5051729;28;8853;-80
2023/07/03 13:27:55;;;;;;;;;5.00;4.00;;;;;;;;5061252;28;9061;-83
2023/07/03 13:30:27;;;;;;;;;6.20;4.20;;;;;;;;5050461;28;8916;-84
2023/07/03 13:33:01;;;;;;;;;3.80;3.80;;;;;;;;5051505;28;8877;-81
2023/07/03 13:35:38;;;;;;;;;3.00;3.00;;;;;;;;5069797;28;8843;-79
2023/07/03 13:38:27;;;;;;;;;3.20;3.20;;;;;;;;5057590;28;8976;-82
2023/07/03 13:40:56;;;;;;;;;2.60;2.60;;;;;;;;5050270;28;8841;-80
2023/07/03 13:43:28;;;;;;;;;5.80;5.20;;;;;;;;5053268;28;8849;-81
2023/07/03 13:45:56;;;;;;;;;4.40;4.00;;;;;;;;5054503;28;8992;-84
2023/07/03 13:48:24;;;;;;;;;4.60;4.60;;;;;;;;5067267;28;8876;-82
2023/07/03 13:50:53;;;;;;;;;4.00;4.00;;;;;;;;5066791;28;8846;-83
2023/07/03 13:53:21;;;;;;;;;6.00;6.00;;;;;;;;5062294;28;8873;-82
2023/07/03 13:55:49;;;;;;;;;5.60;4.80;;;;;;;;5051129;28;8853;-83
2023/07/03 13:58:16;;;;;;;;;4.00;4.00;;;;;;;;5052750;28;8857;-82
2023/07/03 14:00:45;;;;;;;;;5.00;3.20;;;;;;;;5063509;28;8884;-80
2023/07/03 14:03:15;;;;;;;;;5.40;5.40;;;;;;;;5052102;28;8842;-82
2023/07/03 14:05:43;;;;;;;;;4.40;4.40;;;;;;;;5050079;28;8899;-81
2023/07/03 14:08:10;;;;;;;;;5.40;3.80;;;;;;;;5058254;28;8861;-79
2023/07/03 14:10:37;;;;;;;;;5.80;5.80;;;;;;;;5057693;28;8839;-82
2023/07/03 14:13:05;;;;;;;;;5.00;5.00;;;;;;;;5062668;28;8855;-82
2023/07/03 14:15:33;;;;;;;;;5.40;3.60;;;;;;;;5049869;28;8864;-79
2023/07/03 14:18:01;;;;;;;;;4.00;4.00;;;;;;;;5054769;28;8995;-79
2023/07/03 14:20:29;;;;;;;;;4.00;4.00;;;;;;;;5055483;28;8857;-82
2023/07/03 14:22:57;;;;;;;;;4.40;4.40;;;;;;;;5049484;28;8991;-82
2023/07/03 14:25:24;;;;;;;;;5.00;4.00;;;;;;;;5050330;28;8936;-80
2023/07/03 14:27:52;;;;;;;;;4.60;3.20;;;;;;;;5062854;28;8847;-89
2023/07/03 14:30:20;;;;;;;;;4.80;4.60;;;;;;;;5071176;28;8858;-87
2023/07/03 14:32:48;;;;;;;;;3.20;3.20;;;;;;;;5058523;28;9685;-86
2023/07/03 14:35:16;;;;;;;;;4.00;4.00;;;;;;;;5064371;28;8989;-85
2023/07/03 14:37:44;;;;;;;;;4.00;3.00;;;;;;;;5064137;28;8973;-86
2023/07/03 14:40:12;;;;;;;;;3.60;2.60;;;;;;;;5064866;28;8851;-88
2023/07/03 14:42:39;;;;;;;;;3.00;3.00;;;;;;;;5067014;28;8844;-89
2023/07/03 14:45:07;;;;;;;;;4.60;3.00;;;;;;;;5064986;28;8886;-87
2023/07/03 14:47:35;;;;;;;;;1.00;1.00;;;;;;;;5064774;28;8869;-88
2023/07/03 14:50:03;;;;;;;;;2.40;2.40;;;;;;;;5062045;28;8857;-87
2023/07/03 14:52:37;;;;;;;;;3.60;2.20;;;;;;;;5066176;28;8854;-84
2023/07/03 14:55:04;;;;;;;;;3.40;3.40;;;;;;;;5058409;28;8865;-88
2023/07/03 14:57:32;;;;;;;;;3.80;3.80;;;;;;;;5051088;28;8888;-79
2023/07/03 14:59:59;;;;;;;;;3.60;3.00;;;;;;;;5049165;28;8897;-83
2023/07/03 15:02:27;;;;;;;;;5.00;3.20;;;;;;;;5053202;28;8805;-87
2023/07/03 15:04:54;;;;;;;;;4.40;3.00;;;;;;;;5054138;28;8850;-87
2023/07/03 15:07:21;;;;;;;;;3.40;3.00;;;;;;;;5052775;28;8842;-84
2023/07/03 15:09:50;;;;;;;;;4.40;3.00;;;;;;;;5046017;28;9033;-89